createdAt,value
2016-03-25T00:00:08.494Z,0
2016-03-25T00:01:08.497Z,0
2016-03-25T00:02:08.484Z,0
2016-03-25T00:03:08.487Z,0
2016-03-25T00:04:08.489Z,0
2016-03-25T00:05:08.460Z,0
2016-03-25T00:06:08.463Z,0
2016-03-25T00:07:08.490Z,0
2016-03-25T00:08:08.335Z,0
2016-03-25T00:09:08.462Z,0
2016-03-25T00:10:08.450Z,0
2016-03-25T00:11:08.468Z,0
2016-03-25T00:12:08.471Z,0
2016-03-25T00:13:08.458Z,0
2016-03-25T00:14:08.445Z,0
2016-03-25T00:15:08.495Z,0
2016-03-25T00:16:08.434Z,0
2016-03-25T00:17:08.437Z,0
2016-03-25T00:18:08.425Z,0
2016-03-25T00:19:08.677Z,0
2016-03-25T00:20:08.445Z,0
2016-03-25T00:21:08.417Z,0
2016-03-25T00:22:08.435Z,0
2016-03-25T00:23:08.516Z,0
2016-03-25T00:24:08.425Z,0
2016-03-25T00:25:08.427Z,0
2016-03-25T00:26:08.430Z,0
2016-03-25T00:27:08.418Z,0
2016-03-25T00:28:08.404Z,0
2016-03-25T00:29:08.439Z,0
2016-03-25T00:30:08.410Z,0
2016-03-25T00:31:08.396Z,0
2016-03-25T00:32:08.415Z,0
2016-03-25T00:33:08.418Z,0
2016-03-25T00:34:08.405Z,0
2016-03-25T00:35:08.424Z,0
2016-03-25T00:36:08.410Z,0
2016-03-25T00:37:08.398Z,0
2016-03-25T00:38:08.400Z,0
2016-03-25T00:39:08.403Z,0
2016-03-25T00:40:08.390Z,0
2016-03-25T00:41:08.423Z,0
2016-03-25T00:42:08.379Z,0
2016-03-25T00:43:08.382Z,0
2016-03-25T00:44:08.400Z,0
2016-03-25T00:45:08.388Z,0
2016-03-25T00:46:08.375Z,0
2016-03-25T00:47:08.392Z,0
2016-03-25T00:48:08.381Z,0
2016-03-25T00:49:08.477Z,0
2016-03-25T00:50:08.385Z,0
2016-03-25T00:51:08.373Z,0
2016-03-25T00:52:08.360Z,0
2016-03-25T00:53:08.363Z,0
2016-03-25T00:54:08.366Z,0
2016-03-25T00:55:08.383Z,0
2016-03-25T00:56:08.371Z,0
2016-03-25T00:57:08.373Z,0
2016-03-25T00:58:08.376Z,0
2016-03-25T00:59:08.393Z,0
2016-03-25T01:00:08.194Z,0
2016-03-25T01:01:08.352Z,0
2016-03-25T01:02:08.387Z,0
2016-03-25T01:03:08.343Z,0
2016-03-25T01:04:07.611Z,0
2016-03-25T01:05:08.363Z,0
2016-03-25T01:06:08.335Z,0
2016-03-25T01:07:07.588Z,0
2016-03-25T01:08:08.324Z,0
2016-03-25T01:09:08.359Z,0
2016-03-25T01:10:08.330Z,0
2016-03-25T01:11:08.332Z,0
2016-03-25T01:12:08.585Z,0
2016-03-25T01:13:08.353Z,0
2016-03-25T01:14:08.325Z,0
2016-03-25T01:15:08.359Z,0
2016-03-25T01:16:08.315Z,0
2016-03-25T01:17:08.334Z,0
2016-03-25T01:18:08.320Z,0
2016-03-25T01:19:08.323Z,0
2016-03-25T01:20:08.326Z,0
2016-03-25T01:21:08.313Z,0
2016-03-25T01:22:08.316Z,0
2016-03-25T01:23:08.318Z,0
2016-03-25T01:24:08.305Z,0
2016-03-25T01:25:08.339Z,0
2016-03-25T01:26:08.311Z,0
2016-03-25T01:27:08.313Z,0
2016-03-25T01:28:08.316Z,0
2016-03-25T01:29:08.318Z,0
2016-03-25T01:30:08.306Z,0
2016-03-25T01:31:08.293Z,0
2016-03-25T01:32:08.311Z,0
2016-03-25T01:33:08.298Z,0
2016-03-25T01:34:08.301Z,0
2016-03-25T01:35:08.304Z,0
2016-03-25T01:36:08.307Z,0
2016-03-25T01:37:08.137Z,0
2016-03-25T01:38:08.343Z,0
2016-03-25T01:39:08.282Z,0
2016-03-25T01:40:08.301Z,0
2016-03-25T01:41:08.288Z,0
2016-03-25T01:42:08.338Z,0
2016-03-25T01:43:08.278Z,0
2016-03-25T01:44:08.125Z,0
2016-03-25T01:45:08.299Z,0
2016-03-25T01:46:08.270Z,0
2016-03-25T01:47:07.570Z,0
2016-03-25T01:48:08.292Z,0
2016-03-25T01:49:08.325Z,0
2016-03-25T01:50:08.297Z,0
2016-03-25T01:51:08.284Z,0
2016-03-25T01:52:08.271Z,0
2016-03-25T01:53:08.320Z,0
2016-03-25T01:54:08.292Z,0
2016-03-25T01:55:08.263Z,0
2016-03-25T01:56:08.344Z,0
2016-03-25T01:57:09.081Z,0
2016-03-25T01:58:08.272Z,0
2016-03-25T01:59:08.258Z,0
2016-03-25T02:00:08.261Z,0
2016-03-25T02:01:08.264Z,0
2016-03-25T02:02:08.392Z,0
2016-03-25T02:03:08.254Z,0
2016-03-25T02:04:08.271Z,0
2016-03-25T02:05:08.243Z,0
2016-03-25T02:06:08.262Z,0
2016-03-25T02:07:08.249Z,0
2016-03-25T02:08:08.267Z,0
2016-03-25T02:09:08.285Z,0
2016-03-25T02:10:08.257Z,0
2016-03-25T02:11:08.243Z,0
2016-03-25T02:12:08.246Z,0
2016-03-25T02:13:08.234Z,0
2016-03-25T02:14:08.267Z,0
2016-03-25T02:15:08.240Z,0
2016-03-25T02:16:08.257Z,0
2016-03-25T02:17:08.228Z,0
2016-03-25T02:18:08.232Z,0
2016-03-25T02:19:08.234Z,0
2016-03-25T02:20:08.236Z,0
2016-03-25T02:21:08.225Z,0
2016-03-25T02:22:08.227Z,0
2016-03-25T02:23:08.261Z,0
2016-03-25T02:24:08.247Z,0
2016-03-25T02:25:08.219Z,0
2016-03-25T02:26:08.222Z,0
2016-03-25T02:27:08.224Z,0
2016-03-25T02:28:08.227Z,0
2016-03-25T02:29:08.213Z,0
2016-03-25T02:30:08.216Z,0
2016-03-25T02:31:08.220Z,0
2016-03-25T02:32:08.222Z,0
2016-03-25T02:33:08.209Z,0
2016-03-25T02:34:08.213Z,0
2016-03-25T02:35:08.215Z,0
2016-03-25T02:36:08.232Z,0
2016-03-25T02:37:08.188Z,0
2016-03-25T02:38:08.254Z,0
2016-03-25T02:39:08.194Z,0
2016-03-25T02:40:08.197Z,0
2016-03-25T02:41:08.199Z,0
2016-03-25T02:42:08.187Z,0
2016-03-25T02:43:08.190Z,0
2016-03-25T02:44:08.192Z,0
2016-03-25T02:45:08.194Z,0
2016-03-25T02:46:08.181Z,0
2016-03-25T02:47:08.176Z,0
2016-03-25T02:48:08.180Z,0
2016-03-25T02:49:08.137Z,0
2016-03-25T02:50:08.124Z,0
2016-03-25T02:51:08.143Z,0
2016-03-25T02:52:08.105Z,0
2016-03-25T02:53:08.195Z,0
2016-03-25T02:54:08.100Z,0
2016-03-25T02:55:08.065Z,0
2016-03-25T02:56:08.079Z,0
2016-03-25T02:57:08.077Z,0
2016-03-25T02:58:08.062Z,0
2016-03-25T02:59:08.079Z,0
2016-03-25T03:00:08.080Z,0
2016-03-25T03:01:08.049Z,0
2016-03-25T03:02:08.082Z,0
2016-03-25T03:03:08.037Z,0
2016-03-25T03:04:07.898Z,0
2016-03-25T03:05:07.916Z,0
2016-03-25T03:06:08.058Z,0
2016-03-25T03:07:08.060Z,0
2016-03-25T03:08:07.922Z,0
2016-03-25T03:09:08.033Z,0
2016-03-25T03:10:08.035Z,0
2016-03-25T03:11:08.070Z,0
2016-03-25T03:12:08.025Z,0
2016-03-25T03:13:08.043Z,0
2016-03-25T03:14:08.031Z,0
2016-03-25T03:15:07.892Z,0
2016-03-25T03:16:08.036Z,0
2016-03-25T03:17:08.023Z,0
2016-03-25T03:18:08.025Z,0
2016-03-25T03:19:08.013Z,0
2016-03-25T03:20:08.016Z,0
2016-03-25T03:21:08.034Z,0
2016-03-25T03:22:08.052Z,0
2016-03-25T03:23:07.961Z,0
2016-03-25T03:24:08.011Z,0
2016-03-25T03:25:07.997Z,0
2016-03-25T03:26:08.016Z,0
2016-03-25T03:27:08.050Z,0
2016-03-25T03:28:08.005Z,0
2016-03-25T03:29:07.994Z,0
2016-03-25T03:30:08.012Z,0
2016-03-25T03:31:08.014Z,0
2016-03-25T03:32:08.002Z,0
2016-03-25T03:33:08.005Z,0
2016-03-25T03:34:08.007Z,0
2016-03-25T03:35:08.041Z,0
2016-03-25T03:36:07.997Z,0
2016-03-25T03:37:07.999Z,0
2016-03-25T03:38:08.003Z,0
2016-03-25T03:39:08.005Z,0
2016-03-25T03:40:07.991Z,0
2016-03-25T03:41:07.995Z,0
2016-03-25T03:42:07.982Z,0
2016-03-25T03:43:07.968Z,0
2016-03-25T03:44:07.988Z,0
2016-03-25T03:45:07.990Z,0
2016-03-25T03:46:07.977Z,0
2016-03-25T03:47:07.996Z,0
2016-03-25T03:48:07.982Z,0
2016-03-25T03:49:07.970Z,0
2016-03-25T03:50:07.237Z,0
2016-03-25T03:51:07.990Z,0
2016-03-25T03:52:07.962Z,0
2016-03-25T03:53:08.026Z,0
2016-03-25T03:54:07.968Z,0
2016-03-25T03:55:07.970Z,0
2016-03-25T03:56:07.988Z,0
2016-03-25T03:57:08.007Z,0
2016-03-25T03:58:07.978Z,0
2016-03-25T03:59:07.965Z,0
2016-03-25T04:00:07.967Z,0
2016-03-25T04:01:07.955Z,0
2016-03-25T04:02:07.958Z,0
2016-03-25T04:03:07.960Z,0
2016-03-25T04:04:07.963Z,0
2016-03-25T04:05:07.966Z,0
2016-03-25T04:06:07.953Z,0
2016-03-25T04:07:07.971Z,0
2016-03-25T04:08:07.973Z,0
2016-03-25T04:09:07.961Z,0
2016-03-25T04:10:07.932Z,0
2016-03-25T04:11:07.950Z,0
2016-03-25T04:12:07.953Z,0
2016-03-25T04:13:07.799Z,0
2016-03-25T04:14:07.943Z,0
2016-03-25T04:15:07.946Z,0
2016-03-25T04:16:07.948Z,0
2016-03-25T04:17:07.951Z,0
2016-03-25T04:18:07.954Z,0
2016-03-25T04:19:07.926Z,0
2016-03-25T04:20:07.959Z,0
2016-03-25T04:21:07.993Z,0
2016-03-25T04:22:07.933Z,0
2016-03-25T04:23:08.077Z,0
2016-03-25T04:24:07.939Z,0
2016-03-25T04:25:07.925Z,0
2016-03-25T04:26:07.944Z,0
2016-03-25T04:27:07.618Z,0
2016-03-25T04:28:07.934Z,0
2016-03-25T04:29:07.920Z,0
2016-03-25T04:30:07.939Z,0
2016-03-25T04:31:07.911Z,0
2016-03-25T04:32:07.960Z,0
2016-03-25T04:33:07.916Z,0
2016-03-25T04:34:07.934Z,0
2016-03-25T04:35:07.921Z,0
2016-03-25T04:36:07.925Z,0
2016-03-25T04:37:07.942Z,0
2016-03-25T04:38:07.913Z,0
2016-03-25T04:39:07.917Z,0
2016-03-25T04:40:07.919Z,0
2016-03-25T04:41:07.921Z,0
2016-03-25T04:42:07.908Z,0
2016-03-25T04:43:07.927Z,0
2016-03-25T04:44:07.899Z,0
2016-03-25T04:45:07.917Z,0
2016-03-25T04:46:07.919Z,0
2016-03-25T04:47:07.921Z,0
2016-03-25T04:48:07.894Z,0
2016-03-25T04:49:07.896Z,0
2016-03-25T04:50:07.914Z,0
2016-03-25T04:51:07.902Z,0
2016-03-25T04:52:07.904Z,0
2016-03-25T04:53:07.923Z,0
2016-03-25T04:54:07.895Z,0
2016-03-25T04:55:07.990Z,0
2016-03-25T04:56:07.900Z,0
2016-03-25T04:57:08.620Z,0
2016-03-25T04:58:07.906Z,0
2016-03-25T04:59:07.876Z,0
2016-03-25T05:00:07.895Z,5
2016-03-25T05:01:07.195Z,5
2016-03-25T05:02:07.900Z,5
2016-03-25T05:03:07.887Z,5
2016-03-25T05:04:07.889Z,5
2016-03-25T05:05:07.908Z,5
2016-03-25T05:06:07.879Z,5
2016-03-25T05:07:07.897Z,5
2016-03-25T05:08:07.902Z,10
2016-03-25T05:09:07.890Z,10
2016-03-25T05:10:07.188Z,10
2016-03-25T05:11:07.879Z,10
2016-03-25T05:12:07.897Z,10
2016-03-25T05:13:07.884Z,10
2016-03-25T05:14:07.871Z,10
2016-03-25T05:15:07.873Z,10
2016-03-25T05:16:07.876Z,10
2016-03-25T05:17:07.878Z,15
2016-03-25T05:18:07.866Z,15
2016-03-25T05:19:07.712Z,15
2016-03-25T05:20:07.855Z,15
2016-03-25T05:21:07.874Z,15
2016-03-25T05:22:07.861Z,20
2016-03-25T05:23:07.863Z,20
2016-03-25T05:24:07.866Z,20
2016-03-25T05:25:07.853Z,20
2016-03-25T05:26:07.872Z,20
2016-03-25T05:27:07.843Z,20
2016-03-25T05:28:07.877Z,20
2016-03-25T05:29:07.849Z,20
2016-03-25T05:30:07.867Z,20
2016-03-25T05:31:07.854Z,20
2016-03-25T05:32:07.841Z,20
2016-03-25T05:33:07.860Z,25
2016-03-25T05:34:07.831Z,25
2016-03-25T05:35:07.865Z,25
2016-03-25T05:36:07.836Z,25
2016-03-25T05:37:07.840Z,25
2016-03-25T05:38:07.842Z,20
2016-03-25T05:39:07.845Z,20
2016-03-25T05:40:07.848Z,20
2016-03-25T05:41:07.865Z,20
2016-03-25T05:42:07.837Z,20
2016-03-25T05:43:07.840Z,20
2016-03-25T05:44:08.027Z,20
2016-03-25T05:45:07.826Z,20
2016-03-25T05:46:07.829Z,20
2016-03-25T05:47:07.831Z,25
2016-03-25T05:48:07.834Z,25
2016-03-25T05:49:07.836Z,25
2016-03-25T05:50:07.825Z,25
2016-03-25T05:51:07.842Z,25
2016-03-25T05:52:07.829Z,25
2016-03-25T05:53:07.833Z,25
2016-03-25T05:54:07.804Z,25
2016-03-25T05:55:07.821Z,30
2016-03-25T05:56:07.825Z,30
2016-03-25T05:57:07.843Z,30
2016-03-25T05:58:07.819Z,25
2016-03-25T05:59:07.822Z,25
2016-03-25T06:00:07.824Z,30
2016-03-25T06:01:09.420Z,30
2016-03-25T06:02:07.815Z,30
2016-03-25T06:03:07.817Z,30
2016-03-25T06:04:07.804Z,30
2016-03-25T06:05:07.807Z,30
2016-03-25T06:06:08.028Z,30
2016-03-25T06:07:07.828Z,30
2016-03-25T06:08:07.815Z,30
2016-03-25T06:09:07.802Z,30
2016-03-25T06:10:07.820Z,30
2016-03-25T06:11:07.792Z,25
2016-03-25T06:12:07.810Z,25
2016-03-25T06:13:07.798Z,25
2016-03-25T06:14:07.816Z,25
2016-03-25T06:15:07.802Z,25
2016-03-25T06:16:07.806Z,25
2016-03-25T06:17:07.808Z,25
2016-03-25T06:18:07.794Z,25
2016-03-25T06:19:07.813Z,30
2016-03-25T06:20:07.816Z,30
2016-03-25T06:21:07.819Z,30
2016-03-25T06:22:07.805Z,30
2016-03-25T06:23:07.824Z,30
2016-03-25T06:24:07.811Z,35
2016-03-25T06:25:07.798Z,35
2016-03-25T06:26:07.801Z,40
2016-03-25T06:27:07.804Z,45
2016-03-25T06:28:07.790Z,50
2016-03-25T06:29:07.793Z,60
2016-03-25T06:30:07.796Z,70
2016-03-25T06:31:07.798Z,75
2016-03-25T06:32:07.801Z,75
2016-03-25T06:33:07.788Z,75
2016-03-25T06:34:07.791Z,80
2016-03-25T06:35:07.779Z,85
2016-03-25T06:36:07.796Z,85
2016-03-25T06:37:07.799Z,85
2016-03-25T06:38:07.802Z,85
2016-03-25T06:39:07.633Z,85
2016-03-25T06:40:07.791Z,90
2016-03-25T06:41:07.810Z,90
2016-03-25T06:42:07.797Z,90
2016-03-25T06:43:07.627Z,85
2016-03-25T06:44:07.803Z,80
2016-03-25T06:45:07.789Z,80
2016-03-25T06:46:07.792Z,80
2016-03-25T06:47:07.780Z,85
2016-03-25T06:48:07.782Z,85
2016-03-25T06:49:07.800Z,85
2016-03-25T06:50:07.772Z,85
2016-03-25T06:51:07.790Z,85
2016-03-25T06:52:07.808Z,85
2016-03-25T06:53:07.780Z,85
2016-03-25T06:54:07.782Z,80
2016-03-25T06:55:07.786Z,75
2016-03-25T06:56:07.772Z,75
2016-03-25T06:57:07.790Z,85
2016-03-25T06:58:07.777Z,90
2016-03-25T06:59:07.765Z,100
2016-03-25T07:00:07.767Z,110
2016-03-25T07:01:07.770Z,110
2016-03-25T07:02:07.788Z,115
2016-03-25T07:03:07.776Z,125
2016-03-25T07:04:07.778Z,140
2016-03-25T07:05:07.781Z,155
2016-03-25T07:06:07.783Z,165
2016-03-25T07:07:07.786Z,170
2016-03-25T07:08:07.789Z,175
2016-03-25T07:09:07.776Z,180
2016-03-25T07:10:07.794Z,175
2016-03-25T07:11:07.766Z,175
2016-03-25T07:12:07.878Z,175
2016-03-25T07:13:07.770Z,175
2016-03-25T07:14:07.773Z,165
2016-03-25T07:15:07.776Z,155
2016-03-25T07:16:07.763Z,145
2016-03-25T07:17:07.781Z,145
2016-03-25T07:18:07.769Z,140
2016-03-25T07:19:07.786Z,140
2016-03-25T07:20:07.790Z,145
2016-03-25T07:21:07.792Z,145
2016-03-25T07:22:07.794Z,150
2016-03-25T07:23:07.783Z,150
2016-03-25T07:24:07.769Z,160
2016-03-25T07:25:07.771Z,170
2016-03-25T07:26:07.977Z,190
2016-03-25T07:27:07.762Z,205
2016-03-25T07:28:07.780Z,215
2016-03-25T07:29:07.783Z,215
2016-03-25T07:30:07.786Z,205
2016-03-25T07:31:07.788Z,190
2016-03-25T07:32:07.776Z,180
2016-03-25T07:33:07.793Z,170
2016-03-25T07:34:07.093Z,155
2016-03-25T07:35:07.767Z,150
2016-03-25T07:36:07.755Z,150
2016-03-25T07:37:07.789Z,155
2016-03-25T07:38:07.760Z,160
2016-03-25T07:39:07.779Z,165
2016-03-25T07:40:07.781Z,175
2016-03-25T07:41:07.767Z,190
2016-03-25T07:42:07.787Z,200
2016-03-25T07:43:07.789Z,205
2016-03-25T07:44:07.901Z,210
2016-03-25T07:45:08.045Z,215
2016-03-25T07:46:08.345Z,220
2016-03-25T07:47:07.800Z,235
2016-03-25T07:48:08.475Z,245
2016-03-25T07:49:07.853Z,245
2016-03-25T07:50:08.074Z,250
2016-03-25T07:51:07.858Z,260
2016-03-25T07:52:07.704Z,270
2016-03-25T07:53:08.066Z,280
2016-03-25T07:54:08.163Z,285
2016-03-25T07:55:07.853Z,290
2016-03-25T07:56:07.871Z,295
2016-03-25T07:57:07.873Z,295
2016-03-25T07:58:07.860Z,290
2016-03-25T07:59:07.849Z,270
2016-03-25T08:00:07.866Z,255
2016-03-25T08:01:07.853Z,250
2016-03-25T08:02:07.935Z,250
2016-03-25T08:03:07.843Z,255
2016-03-25T08:04:08.689Z,275
2016-03-25T08:05:07.832Z,285
2016-03-25T08:06:08.023Z,290
2016-03-25T08:07:07.838Z,295
2016-03-25T08:08:07.809Z,305
2016-03-25T08:09:07.859Z,325
2016-03-25T08:10:08.018Z,340
2016-03-25T08:11:07.817Z,355
2016-03-25T08:12:07.836Z,365
2016-03-25T08:13:07.854Z,365
2016-03-25T08:14:07.809Z,365
2016-03-25T08:15:07.969Z,360
2016-03-25T08:16:07.815Z,360
2016-03-25T08:17:07.865Z,365
2016-03-25T08:18:07.820Z,360
2016-03-25T08:19:08.917Z,365
2016-03-25T08:20:07.873Z,365
2016-03-25T08:21:07.860Z,370
2016-03-25T08:22:07.691Z,380
2016-03-25T08:23:07.913Z,395
2016-03-25T08:24:08.805Z,410
2016-03-25T08:25:08.089Z,425
2016-03-25T08:26:07.889Z,430
2016-03-25T08:27:08.016Z,430
2016-03-25T08:28:07.941Z,430
2016-03-25T08:29:07.882Z,430
2016-03-25T08:30:07.946Z,425
2016-03-25T08:31:10.935Z,410
2016-03-25T08:32:08.093Z,400
2016-03-25T08:33:07.908Z,385
2016-03-25T08:34:08.052Z,380
2016-03-25T08:35:07.898Z,375
2016-03-25T08:36:07.901Z,360
2016-03-25T08:37:07.887Z,365
2016-03-25T08:38:08.109Z,365
2016-03-25T08:39:07.845Z,370
2016-03-25T08:40:07.926Z,360
2016-03-25T08:41:07.914Z,365
2016-03-25T08:42:07.245Z,390
2016-03-25T08:43:07.982Z,395
2016-03-25T08:44:07.765Z,400
2016-03-25T08:45:08.018Z,435
2016-03-25T08:46:07.287Z,430
2016-03-25T08:47:08.508Z,450
2016-03-25T08:48:08.026Z,450
2016-03-25T08:49:07.967Z,435
2016-03-25T08:50:07.345Z,435
2016-03-25T08:51:08.004Z,470
2016-03-25T08:52:07.412Z,505
2016-03-25T08:53:08.103Z,480
2016-03-25T08:54:07.964Z,400
2016-03-25T08:55:08.061Z,330
2016-03-25T08:56:07.392Z,310
2016-03-25T08:57:08.097Z,315
2016-03-25T08:58:08.022Z,320
2016-03-25T08:59:08.071Z,340
2016-03-25T09:00:07.980Z,355
2016-03-25T09:01:08.046Z,345
2016-03-25T09:02:08.252Z,325
2016-03-25T09:03:08.067Z,320
2016-03-25T09:04:07.632Z,310
2016-03-25T09:05:53.993Z,285
2016-03-25T09:06:10.965Z,285
